SVPL1: Red River at Shreveport Site 2

                                SHEF ID:       SVPL1     Red River at Shreveport Site 2
STATION TYPE:

PRECIP STAGE RIV-FLOW VOLTAGE
in ft cfs volt
Ccp-Rev Ccp-Rev Ccp-Rev Ccp-Rev
(America/Chicago)
06/20 00:00 0.00 16.91 29460 12.84
06/20 01:00 0.00 16.91 29460 12.83
06/20 02:00 0.00 16.92 29520 12.82
06/20 03:00 0.00 16.91 29460 12.82
06/20 04:00 0.00 16.90 29400 12.80
06/20 05:00 0.00 16.92 29520 12.79
06/20 06:00 0.00 17.01 30050 12.77
06/20 07:00 0.00 16.94 29640 12.76
06/20 08:00 0.00 17.09 30450 12.74
06/20 09:00 0.00 17.41 32050 12.79
06/20 10:00 0.00 17.43 32150 12.94
06/20 11:00 0.00 17.47 32350 13.15
06/20 12:00 0.00 17.60 33000 13.07
06/20 13:00 0.00 17.66 33300 13.07
06/20 14:00 0.00 17.72 33600 13.06
06/20 15:00 0.00 17.75 33750 13.05
06/20 16:00 0.00 17.68 33400 13.06
06/20 17:00 0.00 17.85 34250 13.06
06/20 18:00 0.00 17.82 34100 13.07
06/20 19:00 0.00 17.97 34850 12.90
06/20 20:00 0.00 18.00 35000 12.86
06/20 21:00 0.00 18.07 35350 12.85
06/20 22:00 0.00 18.13 35650 12.83
06/20 23:00 0.00 18.22 36100 12.81
Data processed at Mon 22Jun2026 03:24 GMT

NOTICE: If you are parsing this page

Please convert to using our Data API. Starting early 2026 we will be migrating to: https://water.usace.army.mil with modern pages rendered in JavaScript. When this migration completes you will no longer be able to scrape this page! CWMSDataAPI (CDA)

Timeseries IDs (TSIDs)

TSIDs used from left to right in the data table
SHRE.Precip-Inc.Total.1Hour.1Hour.Ccp-Rev
SHRE.Stage.Inst.1Hour.0.Ccp-Rev
SHRE.Flow.Inst.1Hour.0.Ccp-Rev
SHRE.Volt-Battery.Inst.1Hour.0.Ccp-Rev

                            

All information presented herein is the property of the government of the United States of America and may be revised or deleted at any time without prior notice. Dissemination of this information without the expressed written consent of the Public Affairs Office, Tulsa District U.S. Army Corps of Engineers is strictly prohibited. These data are gathered electronically and, as presented, have NOT undergone any form of quality control. These data are NOT guaranteed to be valid or correct.